sensor_id;sensor_type;location;lat;lon;timestamp;pressure;altitude;pressure_sealevel;temperature;humidity
84387;BME280;74580;47.078;15.446;2024-01-07T00:02:13;96034.50;;;21.68;30.51
84387;BME280;74580;47.078;15.446;2024-01-07T00:04:40;96030.25;;;21.67;30.62
84387;BME280;74580;47.078;15.446;2024-01-07T00:07:05;96026.34;;;21.68;30.81
84387;BME280;74580;47.078;15.446;2024-01-07T00:09:30;96019.38;;;21.67;30.54
84387;BME280;74580;47.078;15.446;2024-01-07T00:11:56;96013.94;;;21.67;30.72
84387;BME280;74580;47.078;15.446;2024-01-07T00:14:21;96011.22;;;21.67;30.60
84387;BME280;74580;47.078;15.446;2024-01-07T00:16:47;96010.44;;;21.67;30.76
84387;BME280;74580;47.078;15.446;2024-01-07T00:19:12;96020.13;;;21.68;30.72
84387;BME280;74580;47.078;15.446;2024-01-07T00:21:37;96015.47;;;21.68;30.68
84387;BME280;74580;47.078;15.446;2024-01-07T00:24:03;96007.72;;;21.67;30.64
84387;BME280;74580;47.078;15.446;2024-01-07T00:26:28;96005.38;;;21.69;30.57
84387;BME280;74580;47.078;15.446;2024-01-07T00:28:54;95998.38;;;21.68;30.54
84387;BME280;74580;47.078;15.446;2024-01-07T00:31:19;95987.91;;;21.70;30.58
84387;BME280;74580;47.078;15.446;2024-01-07T00:33:45;95993.75;;;21.68;30.47
84387;BME280;74580;47.078;15.446;2024-01-07T00:36:10;95992.94;;;21.68;30.50
84387;BME280;74580;47.078;15.446;2024-01-07T00:38:35;95994.91;;;21.67;30.54
84387;BME280;74580;47.078;15.446;2024-01-07T00:41:01;95992.94;;;21.68;30.72
84387;BME280;74580;47.078;15.446;2024-01-07T00:43:26;95994.91;;;21.67;30.53
84387;BME280;74580;47.078;15.446;2024-01-07T00:45:51;96001.09;;;21.68;30.58
84387;BME280;74580;47.078;15.446;2024-01-07T00:48:17;95998.38;;;21.68;30.60
84387;BME280;74580;47.078;15.446;2024-01-07T00:50:42;95998.38;;;21.68;30.60
84387;BME280;74580;47.078;15.446;2024-01-07T00:53:08;95999.56;;;21.67;30.44
84387;BME280;74580;47.078;15.446;2024-01-07T00:55:33;96002.28;;;21.67;30.53
84387;BME280;74580;47.078;15.446;2024-01-07T00:58:01;95997.22;;;21.65;30.42
84387;BME280;74580;47.078;15.446;2024-01-07T01:00:26;96002.66;;;21.65;30.45
84387;BME280;74580;47.078;15.446;2024-01-07T01:02:52;96001.50;;;21.66;30.57
84387;BME280;74580;47.078;15.446;2024-01-07T01:05:18;96004.22;;;21.66;30.58
84387;BME280;74580;47.078;15.446;2024-01-07T01:07:43;96006.16;;;21.66;30.67
84387;BME280;74580;47.078;15.446;2024-01-07T01:10:09;96004.59;;;21.65;30.41
84387;BME280;74580;47.078;15.446;2024-01-07T01:12:34;95996.06;;;21.66;30.67
84387;BME280;74580;47.078;15.446;2024-01-07T01:15:00;95994.91;;;21.64;30.63
84387;BME280;74580;47.078;15.446;2024-01-07T01:17:25;95987.53;;;21.64;31.03
84387;BME280;74580;47.078;15.446;2024-01-07T01:19:50;95993.72;;;21.65;30.43
84387;BME280;74580;47.078;15.446;2024-01-07T01:22:16;95999.94;;;21.65;30.66
84387;BME280;74580;47.078;15.446;2024-01-07T01:24:41;95989.47;;;21.64;30.43
84387;BME280;74580;47.078;15.446;2024-01-07T01:27:08;95997.22;;;21.65;30.51
84387;BME280;74580;47.078;15.446;2024-01-07T01:29:34;95992.97;;;21.64;30.35
84387;BME280;74580;47.078;15.446;2024-01-07T01:31:59;95996.44;;;21.65;30.63
84387;BME280;74580;47.078;15.446;2024-01-07T01:34:25;95991.00;;;21.65;30.47
84387;BME280;74580;47.078;15.446;2024-01-07T01:36:50;95981.31;;;21.64;30.43
84387;BME280;74580;47.078;15.446;2024-01-07T01:39:15;95981.72;;;21.66;30.56
84387;BME280;74580;47.078;15.446;2024-01-07T01:41:41;95979.38;;;21.64;30.42
84387;BME280;74580;47.078;15.446;2024-01-07T01:44:06;95977.41;;;21.65;30.41
84387;BME280;74580;47.078;15.446;2024-01-07T01:46:31;95978.59;;;21.64;30.50
84387;BME280;74580;47.078;15.446;2024-01-07T01:48:58;95980.94;;;21.65;30.46
84387;BME280;74580;47.078;15.446;2024-01-07T01:51:24;95970.84;;;21.66;30.55
84387;BME280;74580;47.078;15.446;2024-01-07T01:53:50;95972.78;;;21.65;30.53
84387;BME280;74580;47.078;15.446;2024-01-07T01:56:17;95968.13;;;21.66;30.51
84387;BME280;74580;47.078;15.446;2024-01-07T01:58:44;95972.78;;;21.65;30.33
84387;BME280;74580;47.078;15.446;2024-01-07T02:01:10;95970.84;;;21.66;30.31
84387;BME280;74580;47.078;15.446;2024-01-07T02:03:35;95971.97;;;21.65;30.65
84387;BME280;74580;47.078;15.446;2024-01-07T02:06:00;95977.41;;;21.65;30.66
84387;BME280;74580;47.078;15.446;2024-01-07T02:08:26;95973.56;;;21.66;30.54
84387;BME280;74580;47.078;15.446;2024-01-07T02:10:51;95971.59;;;21.66;30.42
84387;BME280;74580;47.078;15.446;2024-01-07T02:13:17;95972.78;;;21.65;30.44
84387;BME280;74580;47.078;15.446;2024-01-07T02:15:43;95969.25;;;21.65;30.45
84387;BME280;74580;47.078;15.446;2024-01-07T02:18:08;95972.78;;;21.65;30.38
84387;BME280;74580;47.078;15.446;2024-01-07T02:20:34;95974.69;;;21.65;30.58
84387;BME280;74580;47.078;15.446;2024-01-07T02:23:01;95971.97;;;21.65;30.50
84387;BME280;74580;47.078;15.446;2024-01-07T02:25:26;95961.53;;;21.63;30.54
84387;BME280;74580;47.078;15.446;2024-01-07T02:27:51;95968.50;;;21.64;30.54
84387;BME280;74580;47.078;15.446;2024-01-07T02:30:17;95965.78;;;21.64;30.21
84387;BME280;74580;47.078;15.446;2024-01-07T02:32:42;95971.22;;;21.64;30.43
84387;BME280;74580;47.078;15.446;2024-01-07T02:35:08;95973.16;;;21.64;30.23
84387;BME280;74580;47.078;15.446;2024-01-07T02:37:34;95972.78;;;21.65;30.29
84387;BME280;74580;47.078;15.446;2024-01-07T02:39:59;95961.13;;;21.65;30.44
84387;BME280;74580;47.078;15.446;2024-01-07T02:42:25;95960.34;;;21.64;30.53
84387;BME280;74580;47.078;15.446;2024-01-07T02:44:50;95966.53;;;21.65;30.35
84387;BME280;74580;47.078;15.446;2024-01-07T02:47:15;95957.63;;;21.64;30.33
84387;BME280;74580;47.078;15.446;2024-01-07T02:49:41;95958.41;;;21.65;30.45
84387;BME280;74580;47.078;15.446;2024-01-07T02:52:06;95959.56;;;21.64;30.39
84387;BME280;74580;47.078;15.446;2024-01-07T02:54:31;95961.53;;;21.63;30.47
84387;BME280;74580;47.078;15.446;2024-01-07T02:56:57;95965.00;;;21.64;30.31
84387;BME280;74580;47.078;15.446;2024-01-07T02:59:22;95960.75;;;21.63;30.22
84387;BME280;74580;47.078;15.446;2024-01-07T03:01:47;95968.91;;;21.63;30.33
84387;BME280;74580;47.078;15.446;2024-01-07T03:04:14;95957.25;;;21.62;30.10
84387;BME280;74580;47.078;15.446;2024-01-07T03:06:40;95957.25;;;21.62;30.43
84387;BME280;74580;47.078;15.446;2024-01-07T03:09:06;95953.38;;;21.63;30.48
84387;BME280;74580;47.078;15.446;2024-01-07T03:11:32;95956.47;;;21.62;30.36
84387;BME280;74580;47.078;15.446;2024-01-07T03:13:57;95966.97;;;21.63;30.38
84387;BME280;74580;47.078;15.446;2024-01-07T03:16:24;95962.69;;;21.62;30.33
84387;BME280;74580;47.078;15.446;2024-01-07T03:18:50;95970.81;;;21.62;30.24
84387;BME280;74580;47.078;15.446;2024-01-07T03:21:22;95968.13;;;21.62;30.33
84387;BME280;74580;47.078;15.446;2024-01-07T03:23:49;95963.06;;;21.61;30.32
84387;BME280;74580;47.078;15.446;2024-01-07T03:26:15;95967.34;;;21.62;30.29
84387;BME280;74580;47.078;15.446;2024-01-07T03:28:41;95973.94;;;21.61;30.28
84387;BME280;74580;47.078;15.446;2024-01-07T03:31:11;95970.06;;;21.62;30.23
84387;BME280;74580;47.078;15.446;2024-01-07T03:33:37;95973.19;;;21.60;30.58
84387;BME280;74580;47.078;15.446;2024-01-07T03:36:09;95966.19;;;21.59;30.51
84387;BME280;74580;47.078;15.446;2024-01-07T03:38:35;95979.00;;;21.59;30.26
84387;BME280;74580;47.078;15.446;2024-01-07T03:41:01;95977.81;;;21.60;30.23
84387;BME280;74580;47.078;15.446;2024-01-07T03:43:27;95973.56;;;21.59;30.42
84387;BME280;74580;47.078;15.446;2024-01-07T03:45:52;95979.00;;;21.59;30.25
84387;BME280;74580;47.078;15.446;2024-01-07T03:48:17;95984.44;;;21.59;30.16
84387;BME280;74580;47.078;15.446;2024-01-07T03:50:43;95981.72;;;21.59;30.22
84387;BME280;74580;47.078;15.446;2024-01-07T03:53:08;95989.88;;;21.59;30.29
84387;BME280;74580;47.078;15.446;2024-01-07T03:55:34;95979.00;;;21.59;30.20
84387;BME280;74580;47.078;15.446;2024-01-07T03:57:59;95981.72;;;21.59;30.28
84387;BME280;74580;47.078;15.446;2024-01-07T04:00:24;95995.31;;;21.59;30.24
84387;BME280;74580;47.078;15.446;2024-01-07T04:02:50;95994.53;;;21.58;30.28
84387;BME280;74580;47.078;15.446;2024-01-07T04:05:15;95992.59;;;21.59;30.75
84387;BME280;74580;47.078;15.446;2024-01-07T04:07:40;95998.81;;;21.59;30.43
84387;BME280;74580;47.078;15.446;2024-01-07T04:10:06;95998.81;;;21.59;30.31
84387;BME280;74580;47.078;15.446;2024-01-07T04:12:32;96005.41;;;21.58;30.34
84387;BME280;74580;47.078;15.446;2024-01-07T04:14:57;96007.34;;;21.58;30.30
84387;BME280;74580;47.078;15.446;2024-01-07T04:17:23;96008.09;;;21.58;30.35
84387;BME280;74580;47.078;15.446;2024-01-07T04:19:49;96006.97;;;21.59;30.26
84387;BME280;74580;47.078;15.446;2024-01-07T04:22:14;96012.41;;;21.59;30.25
84387;BME280;74580;47.078;15.446;2024-01-07T04:24:43;96012.78;;;21.58;30.25
84387;BME280;74580;47.078;15.446;2024-01-07T04:27:09;96014.72;;;21.57;30.34
84387;BME280;74580;47.078;15.446;2024-01-07T04:29:34;96009.28;;;21.57;30.23
84387;BME280;74580;47.078;15.446;2024-01-07T04:31:59;96020.16;;;21.57;30.33
84387;BME280;74580;47.078;15.446;2024-01-07T04:34:25;96029.84;;;21.58;30.21
84387;BME280;74580;47.078;15.446;2024-01-07T04:36:50;96020.94;;;21.58;30.32
84387;BME280;74580;47.078;15.446;2024-01-07T04:39:16;96027.13;;;21.58;30.39
84387;BME280;74580;47.078;15.446;2024-01-07T04:41:41;96020.56;;;21.59;30.14
84387;BME280;74580;47.078;15.446;2024-01-07T04:44:07;96019.75;;;21.59;30.21
84387;BME280;74580;47.078;15.446;2024-01-07T04:46:39;96030.25;;;21.60;30.36
84387;BME280;74580;47.078;15.446;2024-01-07T04:49:05;96036.44;;;21.61;30.17
84387;BME280;74580;47.078;15.446;2024-01-07T04:51:33;96032.19;;;21.60;30.21
84387;BME280;74580;47.078;15.446;2024-01-07T04:53:59;96041.13;;;21.60;30.26
84387;BME280;74580;47.078;15.446;2024-01-07T04:56:24;96043.06;;;21.60;30.10
84387;BME280;74580;47.078;15.446;2024-01-07T04:58:50;96040.34;;;21.60;30.11
84387;BME280;74580;47.078;15.446;2024-01-07T05:01:15;96045.38;;;21.61;30.35
84387;BME280;74580;47.078;15.446;2024-01-07T05:03:41;96045.00;;;21.59;30.31
84387;BME280;74580;47.078;15.446;2024-01-07T05:06:09;96044.59;;;21.61;30.12
84387;BME280;74580;47.078;15.446;2024-01-07T05:08:36;96053.16;;;21.59;30.12
84387;BME280;74580;47.078;15.446;2024-01-07T05:11:03;96051.19;;;21.60;30.33
84387;BME280;74580;47.078;15.446;2024-01-07T05:13:28;96049.66;;;21.59;30.24
84387;BME280;74580;47.078;15.446;2024-01-07T05:15:53;96057.81;;;21.59;30.18
84387;BME280;74580;47.078;15.446;2024-01-07T05:18:28;96054.31;;;21.58;30.23
84387;BME280;74580;47.078;15.446;2024-01-07T05:20:53;96054.31;;;21.58;30.46
84387;BME280;74580;47.078;15.446;2024-01-07T05:23:18;96057.03;;;21.58;30.26
84387;BME280;74580;47.078;15.446;2024-01-07T05:25:44;96055.47;;;21.57;30.13
84387;BME280;74580;47.078;15.446;2024-01-07T05:28:11;96057.41;;;21.57;30.21
84387;BME280;74580;47.078;15.446;2024-01-07T05:30:36;96058.97;;;21.58;30.11
84387;BME280;74580;47.078;15.446;2024-01-07T05:33:01;96059.38;;;21.56;30.14
84387;BME280;74580;47.078;15.446;2024-01-07T05:35:27;96059.38;;;21.56;30.29
84387;BME280;74580;47.078;15.446;2024-01-07T05:37:52;96065.56;;;21.57;30.08
84387;BME280;74580;47.078;15.446;2024-01-07T05:40:18;96060.53;;;21.55;30.15
84387;BME280;74580;47.078;15.446;2024-01-07T05:42:43;96059.75;;;21.55;30.21
84387;BME280;74580;47.078;15.446;2024-01-07T05:45:09;96059.75;;;21.55;30.29
84387;BME280;74580;47.078;15.446;2024-01-07T05:47:34;96069.47;;;21.56;30.12
84387;BME280;74580;47.078;15.446;2024-01-07T05:49:59;96071.41;;;21.55;30.29
84387;BME280;74580;47.078;15.446;2024-01-07T05:52:25;96070.63;;;21.55;30.14
84387;BME280;74580;47.078;15.446;2024-01-07T05:54:50;96075.28;;;21.54;30.11
84387;BME280;74580;47.078;15.446;2024-01-07T05:57:15;96074.13;;;21.55;30.10
84387;BME280;74580;47.078;15.446;2024-01-07T05:59:43;96068.69;;;21.55;30.20
84387;BME280;74580;47.078;15.446;2024-01-07T06:02:09;96076.06;;;21.55;30.16
84387;BME280;74580;47.078;15.446;2024-01-07T06:04:34;96077.59;;;21.56;30.27
84387;BME280;74580;47.078;15.446;2024-01-07T06:06:59;96074.13;;;21.55;30.05
84387;BME280;74580;47.078;15.446;2024-01-07T06:09:24;96084.22;;;21.55;30.10
84387;BME280;74580;47.078;15.446;2024-01-07T06:11:50;96078.78;;;21.55;30.13
84387;BME280;74580;47.078;15.446;2024-01-07T06:14:15;96082.28;;;21.55;30.24
84387;BME280;74580;47.078;15.446;2024-01-07T06:16:44;96082.28;;;21.55;30.27
84387;BME280;74580;47.078;15.446;2024-01-07T06:19:09;96083.44;;;21.54;30.24
84387;BME280;74580;47.078;15.446;2024-01-07T06:21:34;96081.88;;;21.53;30.06
84387;BME280;74580;47.078;15.446;2024-01-07T06:23:59;96081.88;;;21.53;30.03
84387;BME280;74580;47.078;15.446;2024-01-07T06:26:25;96086.53;;;21.53;30.30
84387;BME280;74580;47.078;15.446;2024-01-07T06:28:50;96098.56;;;21.52;30.12
84387;BME280;74580;47.078;15.446;2024-01-07T06:31:15;96089.25;;;21.53;30.04
84387;BME280;74580;47.078;15.446;2024-01-07T06:33:41;96091.22;;;21.52;30.26
84387;BME280;74580;47.078;15.446;2024-01-07T06:36:06;96087.69;;;21.52;30.04
84387;BME280;74580;47.078;15.446;2024-01-07T06:38:32;96085.78;;;21.52;30.15
84387;BME280;74580;47.078;15.446;2024-01-07T06:40:57;96099.34;;;21.52;30.26
84387;BME280;74580;47.078;15.446;2024-01-07T06:43:27;96093.13;;;21.52;30.08
84387;BME280;74580;47.078;15.446;2024-01-07T06:45:52;96090.41;;;21.52;30.27
84387;BME280;74580;47.078;15.446;2024-01-07T06:48:19;96097.41;;;21.53;30.14
84387;BME280;74580;47.078;15.446;2024-01-07T06:50:44;96099.34;;;21.52;30.16
84387;BME280;74580;47.078;15.446;2024-01-07T06:53:09;96098.56;;;21.52;30.16
84387;BME280;74580;47.078;15.446;2024-01-07T06:55:35;96104.78;;;21.52;29.98
84387;BME280;74580;47.078;15.446;2024-01-07T06:58:00;96114.88;;;21.52;30.25
84387;BME280;74580;47.078;15.446;2024-01-07T07:00:25;96094.69;;;21.53;30.01
84387;BME280;74580;47.078;15.446;2024-01-07T07:02:51;96106.72;;;21.52;30.11
84387;BME280;74580;47.078;15.446;2024-01-07T07:05:17;96107.50;;;21.52;30.06
84387;BME280;74580;47.078;15.446;2024-01-07T07:07:42;96104.41;;;21.54;30.04
84387;BME280;74580;47.078;15.446;2024-01-07T07:10:08;96098.97;;;21.54;29.96
84387;BME280;74580;47.078;15.446;2024-01-07T07:12:33;96102.84;;;21.53;30.18
84387;BME280;74580;47.078;15.446;2024-01-07T07:14:58;96095.47;;;21.53;30.18
84387;BME280;74580;47.078;15.446;2024-01-07T07:17:24;96123.44;;;21.54;30.10
84387;BME280;74580;47.078;15.446;2024-01-07T07:19:49;96108.28;;;21.53;30.11
84387;BME280;74580;47.078;15.446;2024-01-07T07:22:14;96111.78;;;21.53;29.63
84387;BME280;74580;47.078;15.446;2024-01-07T07:24:40;96112.16;;;21.52;30.08
84387;BME280;74580;47.078;15.446;2024-01-07T07:27:06;96121.47;;;21.54;30.29
84387;BME280;74580;47.078;15.446;2024-01-07T07:29:32;96115.28;;;21.54;29.96
84387;BME280;74580;47.078;15.446;2024-01-07T07:31:57;96115.28;;;21.54;29.90
84387;BME280;74580;47.078;15.446;2024-01-07T07:34:22;96112.94;;;21.52;30.23
84387;BME280;74580;47.078;15.446;2024-01-07T07:36:47;96121.09;;;21.52;30.18
84387;BME280;74580;47.078;15.446;2024-01-07T07:39:13;96131.19;;;21.52;30.13
84387;BME280;74580;47.078;15.446;2024-01-07T07:41:39;96119.56;;;21.51;30.08
84387;BME280;74580;47.078;15.446;2024-01-07T07:44:04;96130.41;;;21.51;30.13
84387;BME280;74580;47.078;15.446;2024-01-07T07:46:30;96131.19;;;21.52;30.40
84387;BME280;74580;47.078;15.446;2024-01-07T07:48:55;96128.47;;;21.52;30.40
84387;BME280;74580;47.078;15.446;2024-01-07T07:51:20;96142.84;;;21.52;30.14
84387;BME280;74580;47.078;15.446;2024-01-07T07:53:46;96129.63;;;21.51;29.86
84387;BME280;74580;47.078;15.446;2024-01-07T07:56:11;96131.19;;;21.52;30.04
84387;BME280;74580;47.078;15.446;2024-01-07T07:58:36;96128.47;;;21.52;30.12
84387;BME280;74580;47.078;15.446;2024-01-07T08:01:02;96141.28;;;21.51;30.17
84387;BME280;74580;47.078;15.446;2024-01-07T08:03:27;96145.56;;;21.52;29.89
84387;BME280;74580;47.078;15.446;2024-01-07T08:05:52;96149.44;;;21.51;30.11
84387;BME280;74580;47.078;15.446;2024-01-07T08:08:17;96146.72;;;21.51;29.95
84387;BME280;74580;47.078;15.446;2024-01-07T08:10:43;96149.44;;;21.51;29.98
84387;BME280;74580;47.078;15.446;2024-01-07T08:13:08;96148.66;;;21.51;29.89
84387;BME280;74580;47.078;15.446;2024-01-07T08:15:34;96146.72;;;21.51;29.97
84387;BME280;74580;47.078;15.446;2024-01-07T08:18:01;96152.16;;;21.51;29.89
84387;BME280;74580;47.078;15.446;2024-01-07T08:20:28;96152.91;;;21.52;29.90
84387;BME280;74580;47.078;15.446;2024-01-07T08:22:54;96155.25;;;21.50;30.13
84387;BME280;74580;47.078;15.446;2024-01-07T08:25:19;96153.31;;;21.50;30.05
84387;BME280;74580;47.078;15.446;2024-01-07T08:27:45;96154.09;;;21.51;29.89
84387;BME280;74580;47.078;15.446;2024-01-07T08:30:11;96166.88;;;21.50;29.97
84387;BME280;74580;47.078;15.446;2024-01-07T08:32:39;96159.91;;;21.49;30.17
84387;BME280;74580;47.078;15.446;2024-01-07T08:35:04;96155.25;;;21.50;30.14
84387;BME280;74580;47.078;15.446;2024-01-07T08:37:29;96156.81;;;21.51;29.87
84387;BME280;74580;47.078;15.446;2024-01-07T08:39:55;96167.69;;;21.51;30.08
84387;BME280;74580;47.078;15.446;2024-01-07T08:42:20;96173.13;;;21.51;29.97
84387;BME280;74580;47.078;15.446;2024-01-07T08:44:45;96170.00;;;21.49;30.07
84387;BME280;74580;47.078;15.446;2024-01-07T08:47:12;96178.13;;;21.49;30.03
84387;BME280;74580;47.078;15.446;2024-01-07T08:49:38;96178.94;;;21.49;29.87
84387;BME280;74580;47.078;15.446;2024-01-07T08:52:04;96181.66;;;21.49;29.98
84387;BME280;74580;47.078;15.446;2024-01-07T08:54:30;96173.50;;;21.49;29.74
84387;BME280;74580;47.078;15.446;2024-01-07T08:56:55;96180.47;;;21.50;29.97
84387;BME280;74580;47.078;15.446;2024-01-07T08:59:20;96185.53;;;21.48;29.97
84387;BME280;74580;47.078;15.446;2024-01-07T09:01:46;96194.44;;;21.49;29.91
84387;BME280;74580;47.078;15.446;2024-01-07T09:04:11;96184.75;;;21.48;30.03
84387;BME280;74580;47.078;15.446;2024-01-07T09:06:37;96188.25;;;21.48;30.01
84387;BME280;74580;47.078;15.446;2024-01-07T09:09:03;96194.44;;;21.49;29.86
84387;BME280;74580;47.078;15.446;2024-01-07T09:11:31;96192.50;;;21.49;29.88
84387;BME280;74580;47.078;15.446;2024-01-07T09:13:57;96197.16;;;21.49;29.90
84387;BME280;74580;47.078;15.446;2024-01-07T09:16:22;96204.56;;;21.48;29.88
84387;BME280;74580;47.078;15.446;2024-01-07T09:18:48;96197.56;;;21.51;29.79
84387;BME280;74580;47.078;15.446;2024-01-07T09:21:13;96202.59;;;21.49;29.87
84387;BME280;74580;47.078;15.446;2024-01-07T09:23:40;96204.56;;;21.48;29.90
84387;BME280;74580;47.078;15.446;2024-01-07T09:26:07;96199.13;;;21.48;30.04
84387;BME280;74580;47.078;15.446;2024-01-07T09:28:32;96207.28;;;21.48;30.07
84387;BME280;74580;47.078;15.446;2024-01-07T09:30:58;96206.47;;;21.48;29.88
84387;BME280;74580;47.078;15.446;2024-01-07T09:33:23;96202.59;;;21.49;30.02
84387;BME280;74580;47.078;15.446;2024-01-07T09:35:52;96203.78;;;21.48;29.87
84387;BME280;74580;47.078;15.446;2024-01-07T09:38:19;96211.91;;;21.48;29.79
84387;BME280;74580;47.078;15.446;2024-01-07T09:40:44;96212.72;;;21.48;29.99
84387;BME280;74580;47.078;15.446;2024-01-07T09:43:09;96218.16;;;21.48;30.03
84387;BME280;74580;47.078;15.446;2024-01-07T09:45:38;96213.09;;;21.47;30.03
84387;BME280;74580;47.078;15.446;2024-01-07T09:48:04;96217.34;;;21.48;29.83
84387;BME280;74580;47.078;15.446;2024-01-07T09:50:30;96217.34;;;21.48;29.79
84387;BME280;74580;47.078;15.446;2024-01-07T09:52:56;96205.72;;;21.47;29.87
84387;BME280;74580;47.078;15.446;2024-01-07T09:55:36;96211.91;;;21.48;29.69
84387;BME280;74580;47.078;15.446;2024-01-07T09:58:03;96207.28;;;21.48;29.86
84387;BME280;74580;47.078;15.446;2024-01-07T10:00:28;96214.63;;;21.48;29.82
84387;BME280;74580;47.078;15.446;2024-01-07T10:02:54;96206.88;;;21.46;30.17
84387;BME280;74580;47.078;15.446;2024-01-07T10:05:20;96211.91;;;21.48;29.87
84387;BME280;74580;47.078;15.446;2024-01-07T10:07:45;96209.19;;;21.48;29.75
84387;BME280;74580;47.078;15.446;2024-01-07T10:10:15;96206.47;;;21.48;29.69
84387;BME280;74580;47.078;15.446;2024-01-07T10:12:40;96206.47;;;21.48;29.77
84387;BME280;74580;47.078;15.446;2024-01-07T10:15:06;96207.66;;;21.47;30.03
84387;BME280;74580;47.078;15.446;2024-01-07T10:17:32;96203.00;;;21.47;29.92
84387;BME280;74580;47.078;15.446;2024-01-07T10:19:58;96194.44;;;21.49;29.75
84387;BME280;74580;47.078;15.446;2024-01-07T10:22:23;96201.84;;;21.48;29.89
84387;BME280;74580;47.078;15.446;2024-01-07T10:24:51;96203.78;;;21.48;29.98
84387;BME280;74580;47.078;15.446;2024-01-07T10:27:17;96198.34;;;21.48;29.81
84387;BME280;74580;47.078;15.446;2024-01-07T10:29:42;96201.06;;;21.48;29.75
84387;BME280;74580;47.078;15.446;2024-01-07T10:32:08;96208.44;;;21.47;29.90
84387;BME280;74580;47.078;15.446;2024-01-07T10:34:35;96216.97;;;21.49;29.80
84387;BME280;74580;47.078;15.446;2024-01-07T10:37:02;96207.28;;;21.48;29.70
84387;BME280;74580;47.078;15.446;2024-01-07T10:39:29;96200.28;;;21.47;29.79
84387;BME280;74580;47.078;15.446;2024-01-07T10:41:55;96205.72;;;21.47;29.72
84387;BME280;74580;47.078;15.446;2024-01-07T10:44:29;96207.66;;;21.47;29.68
84387;BME280;74580;47.078;15.446;2024-01-07T10:46:56;96208.44;;;21.47;29.83
84387;BME280;74580;47.078;15.446;2024-01-07T10:49:23;96212.31;;;21.46;29.80
84387;BME280;74580;47.078;15.446;2024-01-07T10:52:06;96206.09;;;21.46;29.81
84387;BME280;74580;47.078;15.446;2024-01-07T10:54:34;96207.66;;;21.47;29.80
84387;BME280;74580;47.078;15.446;2024-01-07T10:57:07;96210.75;;;21.49;29.74
84387;BME280;74580;47.078;15.446;2024-01-07T10:59:36;96201.06;;;21.48;29.74
84387;BME280;74580;47.078;15.446;2024-01-07T11:02:02;96207.66;;;21.47;29.94
84387;BME280;74580;47.078;15.446;2024-01-07T11:04:51;96200.28;;;21.47;29.86
84387;BME280;74580;47.078;15.446;2024-01-07T11:07:31;96205.72;;;21.47;29.75
84387;BME280;74580;47.078;15.446;2024-01-07T11:10:13;96211.91;;;21.48;29.91
84387;BME280;74580;47.078;15.446;2024-01-07T11:12:39;96203.78;;;21.48;29.80
84387;BME280;74580;47.078;15.446;2024-01-07T11:15:05;96210.00;;;21.48;29.74
84387;BME280;74580;47.078;15.446;2024-01-07T11:17:40;96199.50;;;21.47;29.88
84387;BME280;74580;47.078;15.446;2024-01-07T11:20:14;96207.66;;;21.47;29.90
84387;BME280;74580;47.078;15.446;2024-01-07T11:22:42;96199.13;;;21.48;29.85
84387;BME280;74580;47.078;15.446;2024-01-07T11:25:37;96203.78;;;21.48;29.86
84387;BME280;74580;47.078;15.446;2024-01-07T11:28:05;96193.69;;;21.48;29.81
84387;BME280;74580;47.078;15.446;2024-01-07T11:30:38;96202.59;;;21.49;29.87
84387;BME280;74580;47.078;15.446;2024-01-07T11:33:04;96195.22;;;21.49;29.62
84387;BME280;74580;47.078;15.446;2024-01-07T11:35:57;96196.41;;;21.48;29.78
84387;BME280;74580;47.078;15.446;2024-01-07T11:38:24;96200.28;;;21.51;29.65
84387;BME280;74580;47.078;15.446;2024-01-07T11:40:50;96202.59;;;21.49;29.57
84387;BME280;74580;47.078;15.446;2024-01-07T11:43:16;96199.50;;;21.50;29.79
84387;BME280;74580;47.078;15.446;2024-01-07T11:45:41;96204.94;;;21.50;29.75
84387;BME280;74580;47.078;15.446;2024-01-07T11:48:07;96200.66;;;21.49;29.77
84387;BME280;74580;47.078;15.446;2024-01-07T11:50:32;96202.59;;;21.49;29.71
84387;BME280;74580;47.078;15.446;2024-01-07T11:52:58;96194.84;;;21.51;29.78
84387;BME280;74580;47.078;15.446;2024-01-07T11:55:24;96200.28;;;21.51;29.63
84387;BME280;74580;47.078;15.446;2024-01-07T11:57:50;96194.44;;;21.49;29.69
84387;BME280;74580;47.078;15.446;2024-01-07T12:00:17;96198.75;;;21.50;29.79
84387;BME280;74580;47.078;15.446;2024-01-07T12:02:43;96199.88;;;21.49;29.80
84387;BME280;74580;47.078;15.446;2024-01-07T12:05:08;96221.25;;;21.50;29.85
84387;BME280;74580;47.078;15.446;2024-01-07T12:07:34;96193.69;;;21.48;29.81
84387;BME280;74580;47.078;15.446;2024-01-07T12:10:02;96199.88;;;21.49;29.76
84387;BME280;74580;47.078;15.446;2024-01-07T12:12:28;96200.28;;;21.51;29.70
84387;BME280;74580;47.078;15.446;2024-01-07T12:14:54;96197.16;;;21.49;30.03
84387;BME280;74580;47.078;15.446;2024-01-07T12:17:21;96197.16;;;21.49;29.63
84387;BME280;74580;47.078;15.446;2024-01-07T12:19:46;96194.06;;;21.50;29.52
84387;BME280;74580;47.078;15.446;2024-01-07T12:22:12;96198.34;;;21.48;29.80
84387;BME280;74580;47.078;15.446;2024-01-07T12:24:37;96196.41;;;21.48;29.55
84387;BME280;74580;47.078;15.446;2024-01-07T12:27:06;96202.59;;;21.49;29.87
84387;BME280;74580;47.078;15.446;2024-01-07T12:29:32;96198.34;;;21.48;29.74
84387;BME280;74580;47.078;15.446;2024-01-07T12:31:57;96184.00;;;21.47;29.61
84387;BME280;74580;47.078;15.446;2024-01-07T12:34:24;96190.19;;;21.48;29.76
84387;BME280;74580;47.078;15.446;2024-01-07T12:36:50;96196.41;;;21.48;29.71
84387;BME280;74580;47.078;15.446;2024-01-07T12:39:16;96202.22;;;21.47;29.81
84387;BME280;74580;47.078;15.446;2024-01-07T12:41:41;96203.78;;;21.48;29.59
84387;BME280;74580;47.078;15.446;2024-01-07T12:44:07;96195.63;;;21.48;29.74
84387;BME280;74580;47.078;15.446;2024-01-07T12:46:34;96197.56;;;21.47;29.60